Time;durP1;ratioP1;P1;durP2;ratioP2;P2;SDS_P1;SDS_P2;PMS_P1;PMS_P2;Temp;Humidity;BMP_temperature;BMP_pressure;BME280_temperature;BME280_humidity;BME280_pressure;Samples;Min_cycle;Max_cycle;Signal;HPM_P1;HPM_P2
2022/10/04 00:02:01;;;;;;;8.50;2.55;;;;;;;19.10;60.45;99246.50;5093985;28;20047;-46
2022/10/04 00:04:40;;;;;;;5.30;2.88;;;;;;;18.93;60.80;99245.66;5095139;28;20031;-46
2022/10/04 00:07:17;;;;;;;4.88;2.75;;;;;;;18.86;62.09;99237.84;5093732;28;20036;-46
2022/10/04 00:10:08;;;;;;;15.15;8.27;;;;;;;18.74;61.84;99243.22;5093674;28;20398;-46
2022/10/04 00:12:45;;;;;;;11.02;9.82;;;;;;;18.51;61.83;99238.84;5070862;28;20078;-46
2022/10/04 00:15:20;;;;;;;9.02;3.88;;;;;;;18.19;62.23;99235.84;5093279;28;20055;-46
2022/10/04 00:17:58;;;;;;;7.40;4.10;;;;;;;18.01;62.81;99239.47;5093589;28;20115;-46
2022/10/04 00:20:46;;;;;;;21.60;10.23;;;;;;;17.96;63.47;99237.50;5093387;28;20035;-46
2022/10/04 00:23:23;;;;;;;8.65;3.50;;;;;;;17.98;63.38;99236.47;5094657;28;20020;-46
2022/10/04 00:25:55;;;;;;;7.75;7.05;;;;;;;18.03;63.50;99237.41;5094588;28;20028;-46
2022/10/04 00:28:24;;;;;;;4.80;3.33;;;;;;;18.11;63.58;99244.16;5094220;28;20022;-46
2022/10/04 00:31:20;;;;;;;6.63;3.83;;;;;;;18.24;64.21;99243.09;5093171;28;20028;-46
2022/10/04 00:33:53;;;;;;;;;;;;;;;18.32;63.13;99248.03;5093611;28;20086;-46
2022/10/04 00:36:25;;;;;;;6.70;2.72;;;;;;;18.35;63.22;99244.88;5094362;28;19919;-46
2022/10/04 00:39:08;;;;;;;6.82;2.67;;;;;;;18.39;63.37;99238.09;5094372;28;20031;-46
2022/10/04 00:41:52;;;;;;;10.05;5.22;;;;;;;18.48;63.23;99236.63;5094372;28;20039;-46
2022/10/04 00:44:42;;;;;;;10.57;2.97;;;;;;;18.70;62.69;99236.75;5093004;28;20035;-46
2022/10/04 00:47:54;;;;;;;7.57;3.05;;;;;;;18.62;62.05;99244.34;5094197;28;20028;-45
2022/10/04 00:50:32;;;;;;;13.35;11.02;;;;;;;18.29;62.43;99245.84;5093934;28;20077;-46
2022/10/04 00:53:00;;;;;;;8.52;4.43;;;;;;;18.09;63.08;99239.09;5094100;28;20115;-46
2022/10/04 00:55:50;;;;;;;15.93;7.50;;;;;;;18.00;64.08;99240.50;5094049;28;20525;-45
2022/10/04 00:58:37;;;;;;;25.58;16.08;;;;;;;18.17;64.65;99236.06;5092797;28;20036;-46
2022/10/04 01:01:04;;;;;;;77.25;17.10;;;;;;;18.44;63.72;99222.22;5093847;28;20126;-46
2022/10/04 01:03:35;;;;;;;32.38;6.15;;;;;;;18.51;63.95;99232.69;5093920;28;20035;-46
2022/10/04 01:06:08;;;;;;;8.35;4.18;;;;;;;18.60;63.33;99225.16;5093864;28;20050;-46
2022/10/04 01:08:55;;;;;;;8.35;3.35;;;;;;;18.52;63.10;99224.47;5094190;28;20386;-46
2022/10/04 01:11:34;;;;;;;8.60;3.47;;;;;;;18.36;63.40;99222.59;5093712;28;20032;-46
2022/10/04 01:14:12;;;;;;;14.25;4.35;;;;;;;18.36;63.95;99214.63;5093699;28;20054;-46
2022/10/04 01:16:38;;;;;;;6.47;2.92;;;;;;;18.59;62.90;99219.00;5093500;28;20584;-46
2022/10/04 01:19:22;;;;;;;5.28;2.70;;;;;;;18.62;62.58;99217.75;5093648;28;20107;-46
2022/10/04 01:22:29;;;;;;;7.47;3.03;;;;;;;18.53;62.62;99215.47;5092144;28;20107;-46
2022/10/04 01:24:55;;;;;;;16.90;4.22;;;;;;;18.49;62.66;99198.41;5085083;28;20036;-46
2022/10/04 01:27:35;;;;;;;9.15;3.42;;;;;;;18.38;62.99;99204.56;5093441;28;20027;-46
2022/10/04 01:30:06;;;;;;;11.35;4.50;;;;;;;18.37;63.02;99200.28;5093402;28;20039;-46
2022/10/04 01:32:32;;;;;;;5.80;2.75;;;;;;;18.32;62.52;99203.66;5093445;28;20039;-46
2022/10/04 01:34:58;;;;;;;19.38;10.02;;;;;;;18.25;63.44;99207.50;5092289;28;20028;-46
2022/10/04 01:37:24;;;;;;;13.85;6.30;;;;;;;18.29;63.19;99195.34;5091927;28;20043;-46
2022/10/04 01:39:50;;;;;;;13.70;3.67;;;;;;;18.28;63.04;99191.91;5090985;28;20031;-46
2022/10/04 01:42:22;;;;;;;10.10;3.38;;;;;;;18.08;63.56;99196.84;5091824;28;20024;-45
2022/10/04 01:45:02;;;;;;;8.43;3.13;;;;;;;18.13;64.10;99187.13;5091959;28;20097;-46
2022/10/04 01:47:47;;;;;;;5.20;2.53;;;;;;;18.32;63.77;99192.22;5091842;28;20440;-46
2022/10/04 01:50:27;;;;;;;10.32;2.90;;;;;;;18.44;62.73;99187.66;5093013;28;20409;-46
2022/10/04 01:53:00;;;;;;;13.07;3.58;;;;;;;18.53;63.50;99188.91;5091727;28;20036;-46
2022/10/04 01:55:33;;;;;;;8.40;2.85;;;;;;;18.85;62.52;99184.91;5092876;28;20042;-46
2022/10/04 01:58:17;;;;;;;7.45;3.10;;;;;;;18.77;61.67;99178.94;5091796;28;20020;-46
2022/10/04 02:00:54;;;;;;;9.32;3.97;;;;;;;18.88;63.06;99182.56;5091451;28;20670;-46
2022/10/04 02:03:29;;;;;;;11.13;3.00;;;;;;;19.17;61.91;99182.47;5091586;28;20430;-46
2022/10/04 02:05:58;;;;;;;;;;;;;;;19.27;61.75;99179.94;5093141;28;20127;-46
2022/10/04 02:08:31;;;;;;;12.52;2.90;;;;;;;19.33;61.28;99175.50;5092668;28;19911;-46
2022/10/04 02:11:00;;;;;;;10.32;3.35;;;;;;;19.13;60.75;99176.81;5092612;28;20020;-46
2022/10/04 02:13:32;;;;;;;6.47;2.88;;;;;;;18.90;61.49;99172.50;5092895;28;20448;-46
2022/10/04 02:15:59;;;;;;;9.82;2.92;;;;;;;18.72;61.94;99170.84;5091016;28;20043;-45
2022/10/04 02:18:25;;;;;;;9.75;2.95;;;;;;;18.68;62.20;99167.06;5092516;28;20039;-46
2022/10/04 02:20:53;;;;;;;7.45;3.10;;;;;;;18.80;62.32;99167.03;5091053;28;20063;-46
2022/10/04 02:23:21;;;;;;;4.47;2.85;;;;;;;18.88;61.51;99158.63;5091131;28;20022;-46
2022/10/04 02:25:47;;;;;;;8.60;3.17;;;;;;;18.76;61.70;99160.53;5091027;28;20371;-46
2022/10/04 02:28:14;;;;;;;5.68;2.92;;;;;;;18.73;61.83;99153.88;5092365;28;20054;-46
2022/10/04 02:33:41;;;;;;;9.23;2.80;;;;;;;18.31;62.33;99150.75;5092311;28;20035;-46
2022/10/04 02:36:08;;;;;;;8.90;2.83;;;;;;;18.16;62.61;99152.09;5092175;28;20398;-46
2022/10/04 02:38:41;;;;;;;7.50;2.83;;;;;;;18.09;62.86;99150.63;5090942;28;20464;-46
2022/10/04 02:41:26;;;;;;;11.98;3.28;;;;;;;18.14;63.19;99148.88;5090836;28;20028;-46
2022/10/04 02:43:55;;;;;;;12.82;3.10;;;;;;;18.23;62.84;99148.47;5092166;28;20024;-46
2022/10/04 02:46:34;;;;;;;10.40;3.53;;;;;;;18.25;62.93;99149.06;5090767;28;20036;-46
2022/10/04 02:49:36;;;;;;;12.50;3.13;;;;;;;18.39;63.22;99149.56;5090776;28;20032;-46
2022/10/04 02:52:02;;;;;;;3.78;2.30;;;;;;;18.61;62.56;99141.69;5072658;28;20505;-46
2022/10/04 02:54:44;;;;;;;7.53;3.53;;;;;;;18.49;61.82;99149.72;5090684;28;20055;-46
2022/10/04 02:57:21;;;;;;;9.30;6.75;;;;;;;18.43;63.03;99148.84;5091937;28;20024;-46
2022/10/04 02:59:48;;;;;;;7.13;3.30;;;;;;;18.57;62.38;99141.34;5090560;28;20020;-46
2022/10/04 03:02:24;;;;;;;15.88;3.30;;;;;;;18.53;62.03;99140.22;5091883;28;20131;-46
2022/10/04 03:04:52;;;;;;;14.20;3.25;;;;;;;18.53;62.37;99140.22;5090553;28;20028;-46
2022/10/04 03:07:18;;;;;;;7.63;4.00;;;;;;;18.53;62.20;99141.06;5091843;28;20834;-46
2022/10/04 03:09:44;;;;;;;7.07;3.47;;;;;;;18.43;61.97;99134.75;5091795;28;20020;-46
2022/10/04 03:12:12;;;;;;;10.77;3.22;;;;;;;18.22;62.42;99139.72;5090509;28;20118;-46
2022/10/04 03:14:39;;;;;;;4.20;2.88;;;;;;;18.01;62.49;99143.88;5091732;28;20016;-46
2022/10/04 03:17:06;;;;;;;9.23;3.40;;;;;;;17.88;63.46;99136.97;5090234;28;20556;-46
2022/10/04 03:19:33;;;;;;;6.53;3.30;;;;;;;17.82;63.38;99137.09;5091651;28;20511;-46
2022/10/04 03:22:05;;;;;;;8.57;2.90;;;;;;;17.87;64.04;99139.88;5073906;28;20174;-46
2022/10/04 03:24:45;;;;;;;10.70;4.30;;;;;;;18.03;63.93;99133.81;5091767;28;20497;-46
2022/10/04 03:27:20;;;;;;;11.30;3.28;;;;;;;18.15;63.38;99133.75;5091929;28;20028;-46
2022/10/04 03:29:49;;;;;;;9.05;3.33;;;;;;;18.23;63.09;99137.84;5091708;28;20374;-46
2022/10/04 03:32:17;;;;;;;10.70;3.90;;;;;;;18.16;62.64;99144.13;5090350;28;20105;-46
2022/10/04 03:34:57;;;;;;;6.32;3.70;;;;;;;17.97;62.94;99137.41;5091718;28;20374;-45
2022/10/04 03:37:24;;;;;;;12.88;3.15;;;;;;;17.87;63.36;99139.88;5091684;28;20094;-46
2022/10/04 03:39:55;;;;;;;9.55;3.45;;;;;;;17.91;64.11;99149.78;5091511;28;20398;-46
2022/10/04 03:42:29;;;;;;;14.63;4.13;;;;;;;18.09;63.86;99153.28;5091783;28;20020;-46
2022/10/04 03:45:01;;;;;;;13.43;6.18;;;;;;;18.23;63.93;99151.13;5091579;28;20036;-46
2022/10/04 03:47:34;;;;;;;9.80;4.55;;;;;;;18.35;63.61;99150.06;5090264;28;20408;-46
2022/10/04 03:50:15;;;;;;;14.65;9.50;;;;;;;18.47;63.28;99151.81;5090234;28;20036;-46
2022/10/04 03:53:04;;;;;;;5.32;4.43;;;;;;;18.59;62.50;99146.44;5091462;28;20111;-46
2022/10/04 03:55:35;;;;;;;8.20;3.47;;;;;;;18.54;62.19;99155.94;5090973;28;20048;-46
2022/10/04 03:58:01;;;;;;;8.75;4.50;;;;;;;18.51;62.37;99143.16;5090109;28;20024;-46
2022/10/04 04:00:27;;;;;;;11.38;4.55;;;;;;;18.45;62.12;99149.44;5089993;28;20027;-45
2022/10/04 04:03:02;;;;;;;8.63;4.90;;;;;;;18.43;62.42;99148.03;5091457;28;20228;-46
2022/10/04 04:05:34;;;;;;;11.38;4.10;;;;;;;18.40;62.31;99154.63;5095110;28;20032;-46
2022/10/04 04:08:22;;;;;;;13.73;6.70;;;;;;;18.43;62.31;99154.19;5095340;28;20036;-45
2022/10/04 04:10:53;;;;;;;17.33;12.50;;;;;;;18.37;62.28;99155.09;5094931;28;20490;-46
2022/10/04 04:13:28;;;;;;;9.20;5.50;;;;;;;18.25;62.49;99157.03;5094960;28;20024;-46
2022/10/04 04:16:00;;;;;;;10.77;5.13;;;;;;;18.12;62.75;99156.28;5094610;28;20051;-46
2022/10/04 04:18:32;;;;;;;12.68;4.53;;;;;;;17.76;62.47;99160.88;5095121;28;20405;-46
2022/10/04 04:21:01;;;;;;;8.95;4.20;;;;;;;17.30;64.17;99156.47;5094682;28;20028;-46
2022/10/04 04:23:34;;;;;;;6.45;4.32;;;;;;;17.13;64.69;99159.03;5094689;28;20102;-46
2022/10/04 04:26:18;;;;;;;9.50;4.80;;;;;;;16.77;65.40;99160.81;5093384;28;20028;-46
2022/10/04 04:28:50;;;;;;;9.73;5.90;;;;;;;16.55;66.47;99153.41;5094659;28;20024;-46
2022/10/04 04:31:28;;;;;;;9.93;8.30;;;;;;;16.58;66.66;99152.16;5094676;28;20028;-46
2022/10/04 04:34:05;;;;;;;18.20;6.70;;;;;;;16.46;66.76;99154.78;5094596;28;20562;-46
2022/10/04 04:36:40;;;;;;;8.38;5.43;;;;;;;16.43;66.99;99152.59;5094404;28;20046;-46
2022/10/04 04:42:09;;;;;;;31.52;20.55;;;;;;;16.52;67.31;99153.88;5094357;28;20027;-46
2022/10/04 04:44:38;;;;;;;10.00;7.32;;;;;;;16.69;67.13;99154.00;5094349;28;20062;-46
2022/10/04 04:47:15;;;;;;;8.43;5.35;;;;;;;16.73;66.91;99149.88;5094281;28;20055;-46
2022/10/04 04:49:41;;;;;;;14.98;7.05;;;;;;;16.78;66.85;99149.16;5092980;28;20036;-46
2022/10/04 04:52:16;;;;;;;21.85;5.88;;;;;;;16.92;66.61;99147.97;5092976;28;20020;-46
2022/10/04 04:54:45;;;;;;;;;;;;;;;17.03;66.27;99148.19;5094571;28;20035;-45
2022/10/04 04:57:17;;;;;;;10.00;5.75;;;;;;;16.96;66.12;99150.94;5093987;28;20300;-46
2022/10/04 04:59:46;;;;;;;15.18;6.10;;;;;;;16.98;65.92;99146.22;5094026;28;20031;-46
2022/10/04 05:02:31;;;;;;;10.60;6.72;;;;;;;16.91;65.19;99148.19;5075772;28;20039;-46
2022/10/04 05:05:21;;;;;;;14.25;7.57;;;;;;;16.66;65.23;99146.53;5093992;28;20020;-46
2022/10/04 05:07:47;;;;;;;16.58;5.78;;;;;;;16.48;65.91;99146.59;5093922;28;20097;-46
2022/10/04 05:10:30;;;;;;;11.77;5.45;;;;;;;16.37;66.70;99156.13;5092488;28;20024;-46
2022/10/04 05:12:58;;;;;;;8.68;4.65;;;;;;;16.40;66.69;99154.88;5093841;28;20023;-46
2022/10/04 05:15:25;;;;;;;23.30;6.15;;;;;;;16.46;66.59;99143.38;5090909;28;20048;-45
2022/10/04 05:17:51;;;;;;;25.00;6.03;;;;;;;16.51;66.56;99152.25;5093679;28;20020;-46
2022/10/04 05:20:17;;;;;;;9.23;6.03;;;;;;;16.50;66.42;99150.66;5092211;28;20069;-46
2022/10/04 05:22:48;;;;;;;11.63;6.25;;;;;;;16.41;66.76;99145.91;5092218;28;20020;-46
2022/10/04 05:25:32;;;;;;;12.70;8.40;;;;;;;16.27;67.14;99148.75;5093534;28;20436;-46
2022/10/04 05:27:59;;;;;;;13.55;8.52;;;;;;;16.12;67.64;99153.66;5093572;28;20472;-45
2022/10/04 05:30:47;;;;;;;17.77;11.95;;;;;;;15.91;68.46;99147.78;5092039;28;20031;-46
2022/10/04 05:33:22;;;;;;;17.63;12.85;;;;;;;15.78;69.31;99145.34;5093651;28;20399;-46
2022/10/04 05:36:08;;;;;;;14.77;13.27;;;;;;;15.73;69.63;99145.97;5093399;28;20382;-46
2022/10/04 05:38:49;;;;;;;17.33;13.65;;;;;;;15.64;69.91;99147.31;5093313;28;20081;-46
2022/10/04 05:41:28;;;;;;;35.67;32.22;;;;;;;15.51;70.60;99152.72;5093203;28;20102;-46
2022/10/04 05:43:56;;;;;;;20.90;17.30;;;;;;;15.39;70.77;99152.66;5093146;28;20032;-45
2022/10/04 05:46:30;;;;;;;25.50;16.50;;;;;;;15.30;71.32;99152.16;5093109;28;20024;-46
2022/10/04 05:49:07;;;;;;;19.30;15.23;;;;;;;15.26;71.97;99156.25;5091758;28;20020;-45
2022/10/04 05:51:46;;;;;;;17.98;13.82;;;;;;;15.36;71.98;99151.25;5091745;28;20024;-45
2022/10/04 05:54:12;;;;;;;18.58;12.32;;;;;;;15.21;72.51;99156.09;5093089;28;20032;-45
2022/10/04 05:57:03;;;;;;;22.65;11.40;;;;;;;15.47;72.93;99155.00;5092882;28;20028;-46
2022/10/04 05:59:54;;;;;;;19.40;11.90;;;;;;;15.81;71.42;99157.31;5092833;28;20549;-46
2022/10/04 06:02:40;;;;;;;24.38;15.57;;;;;;;15.88;71.04;99148.25;5092802;28;20024;-46
2022/10/04 06:05:18;;;;;;;;;;;;;;;16.10;70.78;99150.44;5093272;28;20051;-46
2022/10/04 06:08:14;;;;;;;16.65;11.13;;;;;;;16.21;69.67;99147.00;5092714;28;20390;-46
2022/10/04 06:10:51;;;;;;;15.98;11.32;;;;;;;16.20;69.50;99141.91;5091346;28;20494;-46
2022/10/04 06:13:54;;;;;;;21.02;11.93;;;;;;;16.25;69.44;99144.72;5092717;28;20024;-46
2022/10/04 06:16:26;;;;;;;28.75;12.10;;;;;;;16.44;70.23;99154.22;5092287;28;20058;-46
2022/10/04 06:19:13;;;;;;;16.85;11.00;;;;;;;16.94;68.80;99159.16;5092504;28;20402;-46
2022/10/04 06:21:55;;;;;;;28.42;12.25;;;;;;;17.10;67.18;99162.97;5091349;28;20523;-46
2022/10/04 06:24:28;;;;;;;23.60;11.38;;;;;;;17.13;66.92;99162.47;5092395;28;20024;-46
2022/10/04 06:27:16;;;;;;;22.05;11.45;;;;;;;17.25;67.75;99157.19;5092084;28;20529;-46
2022/10/04 06:29:51;;;;;;;20.45;11.82;;;;;;;17.50;66.86;99159.56;5091096;28;20122;-46
2022/10/04 06:32:33;;;;;;;23.02;13.45;;;;;;;17.55;65.68;99154.38;5074175;28;20059;-46
2022/10/04 06:35:34;;;;;;;18.92;13.35;;;;;;;17.41;65.62;99162.81;5092380;28;20558;-46
2022/10/04 06:38:34;;;;;;;32.00;13.70;;;;;;;17.40;66.11;99155.88;5088075;28;20078;-46
2022/10/04 06:41:07;;;;;;;32.05;15.30;;;;;;;17.55;65.47;99161.53;5092184;28;20055;-46
2022/10/04 06:43:45;;;;;;;38.53;16.63;;;;;;;17.50;65.78;99164.84;5092189;28;20052;-46
2022/10/04 06:46:32;;;;;;;30.63;12.52;;;;;;;17.53;65.10;99166.25;5090832;28;20034;-46
2022/10/04 06:49:37;;;;;;;21.92;11.75;;;;;;;17.17;65.39;99168.94;5092198;28;20031;-46
2022/10/04 06:52:29;;;;;;;24.45;12.25;;;;;;;17.01;66.27;99171.50;5060059;28;20036;-46
2022/10/04 06:55:22;;;;;;;24.75;12.23;;;;;;;17.02;66.55;99170.44;5092040;28;20028;-46
2022/10/04 06:58:15;;;;;;;29.88;12.98;;;;;;;17.05;66.43;99175.28;5092048;28;20035;-46
2022/10/04 07:01:23;;;;;;;29.88;11.80;;;;;;;17.07;67.32;99175.88;5091902;28;20063;-46
2022/10/04 07:03:57;;;;;;;19.92;11.75;;;;;;;17.27;65.65;99171.00;5063380;28;20032;-46
2022/10/04 07:06:37;;;;;;;22.48;12.07;;;;;;;17.13;65.65;99172.28;5091896;28;20105;-46
2022/10/04 07:09:11;;;;;;;31.45;13.30;;;;;;;16.98;66.43;99180.69;5091903;28;20038;-46
2022/10/04 07:11:57;;;;;;;25.20;12.57;;;;;;;17.24;66.73;99187.38;5090560;28;20043;-46
2022/10/04 07:14:38;;;;;;;18.30;12.68;;;;;;;17.36;65.79;99184.72;5091838;28;20111;-46
2022/10/04 07:17:11;;;;;;;20.92;14.00;;;;;;;17.67;65.55;99180.88;5090378;28;20044;-46
2022/10/04 07:19:51;;;;;;;22.52;14.52;;;;;;;17.87;64.18;99183.16;5090396;28;20453;-46
2022/10/04 07:22:40;;;;;;;28.45;12.57;;;;;;;17.90;64.33;99179.22;5091713;28;20047;-46
2022/10/04 07:25:21;;;;;;;26.23;13.60;;;;;;;18.11;64.07;99183.91;5090457;28;20089;-46
2022/10/04 07:29:19;;;;;;;22.77;11.43;;;;;;;18.42;63.31;99187.09;5091740;28;20044;-46
2022/10/04 07:30:47;;;;;;;20.73;13.27;;;;;;;18.59;61.39;99189.78;5091508;28;20156;-46
2022/10/04 07:33:19;;;;;;;17.65;13.20;;;;;;;18.47;61.25;99195.19;5091693;28;20513;-46
2022/10/04 07:35:59;;;;;;;18.25;11.90;;;;;;;18.32;61.28;99197.53;5091641;28;20024;-46
2022/10/04 07:38:30;;;;;;;29.80;13.48;;;;;;;18.26;61.64;99198.50;5091500;28;20397;-46
2022/10/04 07:41:17;;;;;;;20.67;12.32;;;;;;;18.43;61.64;99199.34;5095534;28;20565;-46
2022/10/04 07:43:49;;;;;;;27.63;12.65;;;;;;;18.64;61.03;99195.19;5095587;28;20035;-45
2022/10/04 07:46:53;;;;;;;25.77;12.00;;;;;;;18.86;60.55;99197.97;5094183;28;20047;-46
2022/10/04 07:49:20;;;;;;;18.00;12.95;;;;;;;19.15;59.62;99197.88;5095427;28;20099;-46
2022/10/04 07:52:19;;;;;;;20.13;13.13;;;;;;;19.16;59.23;99205.59;5095378;28;20028;-46
2022/10/04 07:54:45;;;;;;;18.33;12.25;;;;;;;19.23;58.75;99196.66;5094068;28;20020;-46
2022/10/04 07:57:21;;;;;;;16.35;11.50;;;;;;;19.20;58.15;99213.13;5095262;28;20397;-46
2022/10/04 08:00:10;;;;;;;12.27;10.68;;;;;;;19.14;57.90;99214.88;5095190;28;20053;-46
2022/10/04 08:03:09;;;;;;;18.70;10.55;;;;;;;18.95;57.90;99223.13;5095154;28;20088;-46
2022/10/04 08:05:48;;;;;;;12.07;9.68;;;;;;;18.75;58.59;99223.56;5095025;28;20111;-46
2022/10/04 08:08:23;;;;;;;13.32;11.18;;;;;;;18.69;58.92;99223.69;5095023;28;20024;-46
2022/10/04 08:11:26;;;;;;;17.27;11.80;;;;;;;18.70;59.11;99220.81;5095025;28;20106;-46
2022/10/04 08:14:22;;;;;;;14.07;11.23;;;;;;;18.82;58.61;99227.94;5095279;28;20028;-46
2022/10/04 08:16:59;;;;;;;18.33;12.38;;;;;;;18.90;58.90;99240.84;5093425;28;20048;-46
2022/10/04 08:19:48;;;;;;;15.60;12.77;;;;;;;19.11;58.41;99244.63;5094759;28;20110;-46
2022/10/04 08:22:39;;;;;;;20.67;13.15;;;;;;;19.45;57.83;99248.06;5094768;28;20093;-46
2022/10/04 08:25:26;;;;;;;22.35;11.73;;;;;;;19.77;57.17;99241.34;5094847;28;20032;-45
2022/10/04 08:31:12;;;;;;;25.45;13.35;;;;;;;19.87;57.06;99247.59;5094982;28;20093;-46
2022/10/04 08:33:59;;;;;;;18.63;11.52;;;;;;;20.00;57.23;99257.09;5093300;28;20024;-46
2022/10/04 08:36:46;;;;;;;21.83;12.95;;;;;;;20.33;56.72;99256.13;5094587;28;20035;-46
2022/10/04 08:39:33;;;;;;;21.00;12.60;;;;;;;20.54;55.42;99270.50;5094603;28;20035;-46
2022/10/04 08:42:14;;;;;;;19.10;12.38;;;;;;;20.58;55.32;99259.31;5093092;28;20110;-46
2022/10/04 08:45:11;;;;;;;20.88;13.07;;;;;;;20.80;55.21;99248.59;5094479;28;20028;-46
2022/10/04 08:47:54;;;;;;;18.08;13.88;;;;;;;20.98;54.21;99263.44;5094338;28;20093;-45
2022/10/04 08:50:39;;;;;;;19.67;13.60;;;;;;;20.49;54.64;99262.44;5094220;28;20443;-46
2022/10/04 08:53:34;;;;;;;17.63;13.10;;;;;;;20.41;55.43;99257.53;5094239;28;20024;-46
2022/10/04 08:56:03;;;;;;;20.88;13.05;;;;;;;20.69;54.86;99255.72;5094202;28;20047;-46
2022/10/04 08:58:39;;;;;;;17.65;12.15;;;;;;;21.00;54.25;99264.00;5093979;28;20032;-46
2022/10/04 09:01:51;;;;;;;16.10;12.82;;;;;;;21.47;53.49;99257.94;5094087;28;20390;-46
2022/10/04 09:04:48;;;;;;;18.17;13.27;;;;;;;22.99;52.14;99250.69;5070394;28;20040;-46
2022/10/04 09:07:48;;;;;;;14.98;12.20;;;;;;;24.63;47.04;99252.88;5093999;28;20035;-47
2022/10/04 09:10:39;;;;;;;14.65;11.63;;;;;;;25.51;45.28;99243.00;5094151;28;20028;-46
2022/10/04 09:13:21;;;;;;;19.83;12.38;;;;;;;25.91;43.54;99235.56;5093645;28;20040;-47
2022/10/04 09:16:01;;;;;;;26.63;14.45;;;;;;;26.13;42.54;99238.81;5093672;28;20461;-47
2022/10/04 09:18:36;;;;;;;16.75;12.20;;;;;;;26.46;41.87;99240.50;5092405;28;20047;-47
2022/10/04 09:21:24;;;;;;;23.55;12.57;;;;;;;26.60;40.42;99242.47;5093638;28;20420;-47
2022/10/04 09:24:43;;;;;;;21.60;11.80;;;;;;;25.78;42.17;99246.22;5093672;28;20020;-47
2022/10/04 09:27:38;;;;;;;16.65;12.30;;;;;;;25.08;43.03;99248.22;5031092;28;20074;-47
2022/10/04 09:30:33;;;;;;;17.52;12.15;;;;;;;24.48;43.83;99264.47;5031113;28;20120;-46
2022/10/04 09:33:17;;;;;;;;;;;;;;;24.30;45.14;99270.47;5031571;28;20064;-46
2022/10/04 09:36:11;;;;;;;12.68;11.38;;;;;;;24.37;44.97;99260.25;5030883;28;19909;-46
2022/10/04 09:39:03;;;;;;;12.63;9.35;;;;;;;24.90;43.68;99265.81;5031060;28;20033;-46
2022/10/04 09:41:35;;;;;;;11.57;8.95;;;;;;;24.96;43.23;99263.09;5014203;28;20037;-46
2022/10/04 09:44:18;;;;;;;11.63;9.57;;;;;;;24.81;43.00;99267.53;5030882;28;20025;-46
2022/10/04 09:46:46;;;;;;;18.75;10.68;;;;;;;24.33;44.38;99267.25;5014211;28;20527;-47
2022/10/04 09:49:31;;;;;;;19.10;12.82;;;;;;;23.90;45.34;99269.59;5014096;28;20028;-46
2022/10/04 09:52:36;;;;;;;21.75;15.55;;;;;;;24.19;45.87;99271.63;5030679;28;20041;-46
2022/10/04 09:55:27;;;;;;;67.30;53.00;;;;;;;24.91;44.50;99262.06;5013934;28;20032;-46
2022/10/04 09:58:28;;;;;;;26.80;22.27;;;;;;;26.20;43.28;99252.69;5030648;28;20037;-46
2022/10/04 10:01:15;;;;;;;14.60;8.60;;;;;;;27.83;39.26;99253.78;5062271;28;20034;-46
2022/10/04 10:03:57;;;;;;;15.40;10.35;;;;;;;29.21;36.90;99253.41;5092867;28;20553;-46
2022/10/04 10:06:47;;;;;;;13.10;9.05;;;;;;;30.26;34.95;99249.16;5092704;28;20023;-46
2022/10/04 10:09:19;;;;;;;9.23;8.18;;;;;;;31.42;32.68;99254.91;5092738;28;20039;-46
2022/10/04 10:15:07;;;;;;;10.70;6.93;;;;;;;32.72;31.01;99257.97;5092955;28;20039;-47
2022/10/04 10:17:36;;;;;;;7.72;6.72;;;;;;;33.15;29.37;99257.56;5092606;28;20051;-46
2022/10/04 10:20:25;;;;;;;11.93;7.25;;;;;;;33.21;29.79;99241.81;5092361;28;20024;-46
2022/10/04 10:23:18;;;;;;;21.85;7.35;;;;;;;33.29;29.32;99259.19;5092805;28;20058;-46
2022/10/04 10:26:05;;;;;;;7.75;6.70;;;;;;;33.31;28.75;99254.97;5091183;28;20020;-47
2022/10/04 10:29:04;;;;;;;9.55;6.97;;;;;;;32.91;29.06;99255.53;5092471;28;20478;-47
2022/10/04 10:31:53;;;;;;;12.15;5.88;;;;;;;32.79;29.58;99252.78;5092426;28;20063;-47
2022/10/04 10:34:51;;;;;;;7.40;5.68;;;;;;;32.74;29.74;99251.09;5092315;28;20470;-47
2022/10/04 10:37:35;;;;;;;7.32;5.28;;;;;;;32.89;29.64;99254.31;5080055;28;20143;-46
2022/10/04 10:40:03;;;;;;;7.10;4.85;;;;;;;32.94;29.16;99257.59;5090888;28;20048;-47
2022/10/04 10:42:38;;;;;;;7.00;5.10;;;;;;;33.18;29.05;99240.56;5090874;28;20024;-46
2022/10/04 10:45:08;;;;;;;8.43;5.00;;;;;;;33.18;29.09;99242.47;5090815;28;20020;-47
2022/10/04 10:47:54;;;;;;;7.20;4.60;;;;;;;33.07;28.86;99247.53;5092379;28;20024;-47
2022/10/04 10:50:32;;;;;;;8.70;4.90;;;;;;;33.13;28.68;99251.66;5092040;28;20335;-47
2022/10/04 10:53:46;;;;;;;6.88;4.68;;;;;;;33.19;28.88;99242.16;5092075;28;20063;-47
2022/10/04 10:56:31;;;;;;;6.30;5.05;;;;;;;33.48;28.24;99242.28;5029675;28;20037;-47
2022/10/04 10:59:18;;;;;;;5.97;4.55;;;;;;;33.37;28.02;99244.66;5013157;28;20040;-47
2022/10/04 11:02:08;;;;;;;7.22;4.53;;;;;;;33.66;28.29;99243.66;5012932;28;20033;-47
2022/10/04 11:04:53;;;;;;;10.00;4.45;;;;;;;34.06;28.03;99239.44;5029457;28;20664;-47
2022/10/04 11:07:50;;;;;;;4.85;4.22;;;;;;;34.10;27.64;99237.59;5029457;28;20034;-47
2022/10/04 11:10:49;;;;;;;7.43;3.78;;;;;;;34.25;27.43;99228.75;5029466;28;20026;-47
2022/10/04 11:13:49;;;;;;;12.75;4.65;;;;;;;34.03;27.25;99219.13;5031985;28;20069;-47
2022/10/04 11:16:33;;;;;;;7.43;4.47;;;;;;;34.06;27.36;99237.50;5033402;28;20133;-47
2022/10/04 11:19:43;;;;;;;8.65;4.28;;;;;;;33.50;28.04;99231.84;5033567;28;20037;-47
2022/10/04 11:22:29;;;;;;;5.30;4.20;;;;;;;33.53;28.03;99225.75;5016852;28;20388;-46
2022/10/04 11:25:06;;;;;;;8.43;4.65;;;;;;;33.12;28.62;99225.63;5033536;28;20030;-46
2022/10/04 11:28:01;;;;;;;6.78;4.30;;;;;;;33.16;28.80;99228.44;5033428;28;20033;-47
2022/10/04 11:31:02;;;;;;;14.73;5.30;;;;;;;33.16;28.83;99220.25;5036163;28;20037;-46
2022/10/04 11:34:04;;;;;;;13.80;4.75;;;;;;;32.91;29.14;99214.75;5095780;28;20424;-46
2022/10/04 11:36:56;;;;;;;7.00;4.90;;;;;;;32.55;29.26;99212.72;5095700;28;20486;-47
2022/10/04 11:39:53;;;;;;;13.73;5.05;;;;;;;32.61;29.47;99208.69;5094616;28;20405;-47
2022/10/04 11:42:48;;;;;;;8.73;3.80;;;;;;;32.55;28.93;99204.56;5094307;28;20039;-46
2022/10/04 11:45:32;;;;;;;;;;;;;;;32.69;29.35;99198.84;5090614;28;20070;-46
2022/10/04 11:48:38;;;;;;;26.23;5.28;;;;;;;32.88;29.13;99187.44;5095467;28;20377;-47
2022/10/04 11:51:11;;;;;;;30.13;5.18;;;;;;;33.16;29.30;99190.34;5071368;28;20032;-46
2022/10/04 11:54:21;;;;;;;13.32;4.03;;;;;;;33.36;28.85;99185.94;5095553;28;20448;-47
2022/10/04 11:57:08;;;;;;;10.77;4.32;;;;;;;33.09;29.51;99176.53;5095282;28;20050;-47
2022/10/04 12:00:00;;;;;;;4.72;3.80;;;;;;;32.93;29.27;99173.66;5095199;28;20032;-46
2022/10/04 12:03:04;;;;;;;4.65;3.40;;;;;;;32.95;29.07;99158.56;5093923;28;20028;-46
2022/10/04 12:05:51;;;;;;;7.57;3.53;;;;;;;32.96;28.71;99162.91;5095198;28;20539;-47
2022/10/04 12:08:47;;;;;;;6.05;2.95;;;;;;;32.28;29.53;99159.72;5093770;28;20266;-47
2022/10/04 12:11:25;;;;;;;8.20;3.95;;;;;;;32.01;29.83;99156.44;5093815;28;20024;-47
2022/10/04 12:14:02;;;;;;;5.25;3.20;;;;;;;32.18;29.49;99145.44;5095041;28;20020;-46
2022/10/04 12:16:55;;;;;;;5.22;3.17;;;;;;;31.69;29.95;99147.84;5094726;28;20156;-46
2022/10/04 12:19:42;;;;;;;7.47;3.35;;;;;;;30.76;31.48;99134.06;5094952;28;20028;-46
2022/10/04 12:22:43;;;;;;;9.20;3.13;;;;;;;30.85;31.57;99134.03;5094889;28;20039;-46
2022/10/04 12:25:30;;;;;;;7.43;3.33;;;;;;;30.96;32.07;99129.88;5075987;28;20044;-46
2022/10/04 12:28:14;;;;;;;5.05;3.00;;;;;;;30.76;31.03;99123.22;5094778;28;20024;-46
2022/10/04 12:31:02;;;;;;;8.93;3.28;;;;;;;30.19;32.41;99124.28;5094627;28;20063;-46
2022/10/04 12:33:57;;;;;;;5.35;2.83;;;;;;;30.03;33.13;99123.19;5094591;28;20024;-46
2022/10/04 12:36:31;;;;;;;4.13;2.20;;;;;;;30.40;31.93;99110.09;5094549;28;20062;-46
2022/10/04 12:39:05;;;;;;;3.23;2.10;;;;;;;30.44;32.18;99102.91;5094563;28;20189;-46
2022/10/04 12:41:31;;;;;;;4.55;2.00;;;;;;;30.67;31.73;99101.59;5093134;28;20501;-46
2022/10/04 12:44:29;;;;;;;4.65;2.30;;;;;;;30.66;31.35;99101.91;5093081;28;20032;-46